sensor_id;sensor_type;location;lat;lon;timestamp;P1;durP1;ratioP1;P2;durP2;ratioP2
76459;SDS011;65299;46.084;18.762;2023-12-14T00:02:42;2.13;;;1.60;;
76459;SDS011;65299;46.084;18.762;2023-12-14T00:05:42;2.53;;;1.40;;
76459;SDS011;65299;46.084;18.762;2023-12-14T00:08:43;2.42;;;1.23;;
76459;SDS011;65299;46.084;18.762;2023-12-14T00:11:43;2.50;;;1.73;;
76459;SDS011;65299;46.084;18.762;2023-12-14T00:14:43;2.93;;;2.03;;
76459;SDS011;65299;46.084;18.762;2023-12-14T00:17:44;6.50;;;3.50;;
76459;SDS011;65299;46.084;18.762;2023-12-14T00:20:44;5.65;;;2.95;;
76459;SDS011;65299;46.084;18.762;2023-12-14T00:23:45;3.77;;;2.37;;
76459;SDS011;65299;46.084;18.762;2023-12-14T00:26:45;3.00;;;1.57;;
76459;SDS011;65299;46.084;18.762;2023-12-14T00:29:46;2.72;;;2.00;;
76459;SDS011;65299;46.084;18.762;2023-12-14T00:32:46;2.90;;;1.90;;
76459;SDS011;65299;46.084;18.762;2023-12-14T00:35:47;3.40;;;1.83;;
76459;SDS011;65299;46.084;18.762;2023-12-14T00:38:47;2.97;;;2.00;;
76459;SDS011;65299;46.084;18.762;2023-12-14T00:41:47;3.23;;;2.23;;
76459;SDS011;65299;46.084;18.762;2023-12-14T00:44:48;4.17;;;2.43;;
76459;SDS011;65299;46.084;18.762;2023-12-14T00:47:48;3.73;;;2.40;;
76459;SDS011;65299;46.084;18.762;2023-12-14T00:50:49;5.10;;;2.83;;
76459;SDS011;65299;46.084;18.762;2023-12-14T00:53:49;3.38;;;2.20;;
76459;SDS011;65299;46.084;18.762;2023-12-14T00:56:49;2.77;;;1.93;;
76459;SDS011;65299;46.084;18.762;2023-12-14T00:59:50;3.20;;;1.93;;
76459;SDS011;65299;46.084;18.762;2023-12-14T01:02:50;3.10;;;2.20;;
76459;SDS011;65299;46.084;18.762;2023-12-14T01:05:51;3.07;;;2.00;;
76459;SDS011;65299;46.084;18.762;2023-12-14T01:08:51;4.50;;;2.90;;
76459;SDS011;65299;46.084;18.762;2023-12-14T01:11:51;4.57;;;2.70;;
76459;SDS011;65299;46.084;18.762;2023-12-14T01:14:52;5.67;;;3.07;;
76459;SDS011;65299;46.084;18.762;2023-12-14T01:17:52;3.97;;;2.70;;
76459;SDS011;65299;46.084;18.762;2023-12-14T01:20:52;5.00;;;2.90;;
76459;SDS011;65299;46.084;18.762;2023-12-14T01:23:53;3.88;;;2.28;;
76459;SDS011;65299;46.084;18.762;2023-12-14T01:26:53;4.40;;;2.60;;
76459;SDS011;65299;46.084;18.762;2023-12-14T01:29:54;3.53;;;2.53;;
76459;SDS011;65299;46.084;18.762;2023-12-14T01:32:54;2.47;;;1.73;;
76459;SDS011;65299;46.084;18.762;2023-12-14T01:35:55;2.50;;;1.90;;
76459;SDS011;65299;46.084;18.762;2023-12-14T01:38:55;2.67;;;1.80;;
76459;SDS011;65299;46.084;18.762;2023-12-14T01:41:56;2.17;;;1.50;;
76459;SDS011;65299;46.084;18.762;2023-12-14T01:44:56;2.67;;;1.60;;
76459;SDS011;65299;46.084;18.762;2023-12-14T01:47:56;2.27;;;1.43;;
76459;SDS011;65299;46.084;18.762;2023-12-14T01:50:57;2.37;;;1.67;;
76459;SDS011;65299;46.084;18.762;2023-12-14T01:53:57;1.60;;;0.90;;
76459;SDS011;65299;46.084;18.762;2023-12-14T01:56:58;4.07;;;2.30;;
76459;SDS011;65299;46.084;18.762;2023-12-14T01:59:58;5.20;;;2.77;;
76459;SDS011;65299;46.084;18.762;2023-12-14T02:02:58;4.10;;;2.63;;
76459;SDS011;65299;46.084;18.762;2023-12-14T02:05:59;5.17;;;3.40;;
76459;SDS011;65299;46.084;18.762;2023-12-14T02:09:01;4.13;;;1.90;;
76459;SDS011;65299;46.084;18.762;2023-12-14T02:12:01;2.92;;;1.80;;
76459;SDS011;65299;46.084;18.762;2023-12-14T02:15:02;2.47;;;1.40;;
76459;SDS011;65299;46.084;18.762;2023-12-14T02:18:02;1.73;;;1.17;;
76459;SDS011;65299;46.084;18.762;2023-12-14T02:21:03;1.98;;;1.15;;
76459;SDS011;65299;46.084;18.762;2023-12-14T02:24:03;1.80;;;1.00;;
76459;SDS011;65299;46.084;18.762;2023-12-14T02:27:04;4.28;;;1.83;;
76459;SDS011;65299;46.084;18.762;2023-12-14T02:30:05;12.40;;;5.87;;
76459;SDS011;65299;46.084;18.762;2023-12-14T02:33:06;16.83;;;10.07;;
76459;SDS011;65299;46.084;18.762;2023-12-14T02:36:06;10.57;;;5.93;;
76459;SDS011;65299;46.084;18.762;2023-12-14T02:39:07;10.15;;;5.85;;
76459;SDS011;65299;46.084;18.762;2023-12-14T02:42:07;4.07;;;2.67;;
76459;SDS011;65299;46.084;18.762;2023-12-14T02:45:08;3.23;;;2.27;;
76459;SDS011;65299;46.084;18.762;2023-12-14T02:48:08;3.72;;;2.55;;
76459;SDS011;65299;46.084;18.762;2023-12-14T02:51:13;1.83;;;1.30;;
76459;SDS011;65299;46.084;18.762;2023-12-14T02:54:14;2.42;;;1.98;;
76459;SDS011;65299;46.084;18.762;2023-12-14T02:57:15;2.97;;;1.30;;
76459;SDS011;65299;46.084;18.762;2023-12-14T03:00:15;0.97;;;0.80;;
76459;SDS011;65299;46.084;18.762;2023-12-14T03:03:16;2.08;;;1.00;;
76459;SDS011;65299;46.084;18.762;2023-12-14T03:06:16;1.73;;;1.03;;
76459;SDS011;65299;46.084;18.762;2023-12-14T03:09:16;1.20;;;0.77;;
76459;SDS011;65299;46.084;18.762;2023-12-14T03:12:19;1.13;;;0.75;;
76459;SDS011;65299;46.084;18.762;2023-12-14T03:15:19;2.73;;;1.17;;
76459;SDS011;65299;46.084;18.762;2023-12-14T03:18:20;2.90;;;1.73;;
76459;SDS011;65299;46.084;18.762;2023-12-14T03:21:20;15.47;;;6.00;;
76459;SDS011;65299;46.084;18.762;2023-12-14T03:24:20;19.10;;;7.90;;
76459;SDS011;65299;46.084;18.762;2023-12-14T03:27:21;10.05;;;4.97;;
76459;SDS011;65299;46.084;18.762;2023-12-14T03:30:23;5.40;;;3.20;;
76459;SDS011;65299;46.084;18.762;2023-12-14T03:33:23;6.57;;;2.90;;
76459;SDS011;65299;46.084;18.762;2023-12-14T03:36:24;8.67;;;4.10;;
76459;SDS011;65299;46.084;18.762;2023-12-14T03:39:26;9.43;;;5.00;;
76459;SDS011;65299;46.084;18.762;2023-12-14T03:42:27;8.97;;;4.90;;
76459;SDS011;65299;46.084;18.762;2023-12-14T03:45:27;7.88;;;4.07;;
76459;SDS011;65299;46.084;18.762;2023-12-14T03:48:28;5.03;;;3.03;;
76459;SDS011;65299;46.084;18.762;2023-12-14T03:51:28;5.63;;;2.87;;
76459;SDS011;65299;46.084;18.762;2023-12-14T03:54:29;4.33;;;2.47;;
76459;SDS011;65299;46.084;18.762;2023-12-14T03:57:29;2.50;;;1.80;;
76459;SDS011;65299;46.084;18.762;2023-12-14T04:00:29;3.80;;;1.90;;
76459;SDS011;65299;46.084;18.762;2023-12-14T04:03:30;4.33;;;2.57;;
76459;SDS011;65299;46.084;18.762;2023-12-14T04:06:30;5.40;;;2.63;;
76459;SDS011;65299;46.084;18.762;2023-12-14T04:09:31;4.10;;;2.73;;
76459;SDS011;65299;46.084;18.762;2023-12-14T04:12:31;5.32;;;3.05;;
76459;SDS011;65299;46.084;18.762;2023-12-14T04:15:31;6.30;;;3.50;;
76459;SDS011;65299;46.084;18.762;2023-12-14T04:18:32;103.10;;;31.73;;
76459;SDS011;65299;46.084;18.762;2023-12-14T04:21:32;14.47;;;5.87;;
76459;SDS011;65299;46.084;18.762;2023-12-14T04:24:33;29.00;;;18.40;;
76459;SDS011;65299;46.084;18.762;2023-12-14T04:27:33;18.95;;;12.73;;
76459;SDS011;65299;46.084;18.762;2023-12-14T04:30:34;16.20;;;10.63;;
76459;SDS011;65299;46.084;18.762;2023-12-14T04:33:34;14.77;;;9.25;;
76459;SDS011;65299;46.084;18.762;2023-12-14T04:36:35;14.53;;;9.13;;
76459;SDS011;65299;46.084;18.762;2023-12-14T04:39:35;13.53;;;8.57;;
76459;SDS011;65299;46.084;18.762;2023-12-14T04:42:35;11.27;;;7.10;;
76459;SDS011;65299;46.084;18.762;2023-12-14T04:45:36;10.48;;;6.00;;
76459;SDS011;65299;46.084;18.762;2023-12-14T04:48:36;11.40;;;6.57;;
76459;SDS011;65299;46.084;18.762;2023-12-14T04:51:37;17.23;;;6.40;;
76459;SDS011;65299;46.084;18.762;2023-12-14T04:54:37;12.30;;;6.90;;
76459;SDS011;65299;46.084;18.762;2023-12-14T04:57:40;13.30;;;7.78;;
76459;SDS011;65299;46.084;18.762;2023-12-14T05:00:40;15.10;;;8.20;;
76459;SDS011;65299;46.084;18.762;2023-12-14T05:03:41;23.25;;;12.77;;
76459;SDS011;65299;46.084;18.762;2023-12-14T05:06:41;17.50;;;9.70;;
76459;SDS011;65299;46.084;18.762;2023-12-14T05:09:42;18.87;;;10.10;;
76459;SDS011;65299;46.084;18.762;2023-12-14T05:12:42;33.07;;;15.43;;
76459;SDS011;65299;46.084;18.762;2023-12-14T05:15:42;96.47;;;46.87;;
76459;SDS011;65299;46.084;18.762;2023-12-14T05:18:43;80.90;;;38.65;;
76459;SDS011;65299;46.084;18.762;2023-12-14T05:21:43;39.43;;;21.47;;
76459;SDS011;65299;46.084;18.762;2023-12-14T05:24:46;44.43;;;22.10;;
76459;SDS011;65299;46.084;18.762;2023-12-14T05:27:47;46.90;;;22.67;;
76459;SDS011;65299;46.084;18.762;2023-12-14T05:30:47;17.67;;;9.50;;
76459;SDS011;65299;46.084;18.762;2023-12-14T05:33:48;10.27;;;4.30;;
76459;SDS011;65299;46.084;18.762;2023-12-14T05:36:48;12.88;;;6.10;;
76459;SDS011;65299;46.084;18.762;2023-12-14T05:39:48;6.53;;;3.60;;
76459;SDS011;65299;46.084;18.762;2023-12-14T05:42:49;6.07;;;3.70;;
76459;SDS011;65299;46.084;18.762;2023-12-14T05:45:49;8.00;;;4.50;;
76459;SDS011;65299;46.084;18.762;2023-12-14T05:48:50;14.27;;;7.32;;
76459;SDS011;65299;46.084;18.762;2023-12-14T05:51:51;14.70;;;8.63;;
76459;SDS011;65299;46.084;18.762;2023-12-14T05:54:51;21.00;;;11.55;;
76459;SDS011;65299;46.084;18.762;2023-12-14T05:57:51;22.17;;;12.17;;
76459;SDS011;65299;46.084;18.762;2023-12-14T06:00:52;20.33;;;11.13;;
76459;SDS011;65299;46.084;18.762;2023-12-14T06:03:53;18.77;;;11.23;;
76459;SDS011;65299;46.084;18.762;2023-12-14T06:06:53;19.63;;;11.23;;
76459;SDS011;65299;46.084;18.762;2023-12-14T06:09:53;13.60;;;7.13;;
76459;SDS011;65299;46.084;18.762;2023-12-14T06:12:54;16.77;;;8.93;;
76459;SDS011;65299;46.084;18.762;2023-12-14T06:15:54;9.30;;;5.68;;
76459;SDS011;65299;46.084;18.762;2023-12-14T06:18:55;10.30;;;5.40;;
76459;SDS011;65299;46.084;18.762;2023-12-14T06:21:55;16.13;;;8.77;;
76459;SDS011;65299;46.084;18.762;2023-12-14T06:24:56;28.90;;;17.70;;
76459;SDS011;65299;46.084;18.762;2023-12-14T06:27:56;21.97;;;13.83;;
76459;SDS011;65299;46.084;18.762;2023-12-14T06:30:57;21.07;;;13.03;;
76459;SDS011;65299;46.084;18.762;2023-12-14T06:33:57;23.80;;;11.80;;
76459;SDS011;65299;46.084;18.762;2023-12-14T06:37:00;21.60;;;11.57;;
76459;SDS011;65299;46.084;18.762;2023-12-14T06:40:03;15.30;;;8.35;;
76459;SDS011;65299;46.084;18.762;2023-12-14T06:43:06;20.50;;;9.90;;
76459;SDS011;65299;46.084;18.762;2023-12-14T06:46:07;75.68;;;24.20;;
76459;SDS011;65299;46.084;18.762;2023-12-14T06:49:08;54.43;;;21.60;;
76459;SDS011;65299;46.084;18.762;2023-12-14T06:52:08;41.58;;;18.35;;
76459;SDS011;65299;46.084;18.762;2023-12-14T06:55:09;30.80;;;14.10;;
76459;SDS011;65299;46.084;18.762;2023-12-14T06:58:10;36.97;;;17.98;;
76459;SDS011;65299;46.084;18.762;2023-12-14T07:01:15;22.65;;;12.52;;
76459;SDS011;65299;46.084;18.762;2023-12-14T07:04:16;28.48;;;14.65;;
76459;SDS011;65299;46.084;18.762;2023-12-14T07:07:16;16.70;;;8.83;;
76459;SDS011;65299;46.084;18.762;2023-12-14T07:10:17;13.60;;;8.07;;
76459;SDS011;65299;46.084;18.762;2023-12-14T07:13:17;22.35;;;11.35;;
76459;SDS011;65299;46.084;18.762;2023-12-14T07:16:18;19.77;;;10.37;;
76459;SDS011;65299;46.084;18.762;2023-12-14T07:19:18;31.23;;;15.67;;
76459;SDS011;65299;46.084;18.762;2023-12-14T07:22:19;45.23;;;23.70;;
76459;SDS011;65299;46.084;18.762;2023-12-14T07:25:19;32.28;;;15.93;;
76459;SDS011;65299;46.084;18.762;2023-12-14T07:28:19;34.40;;;14.53;;
76459;SDS011;65299;46.084;18.762;2023-12-14T07:31:20;38.53;;;20.67;;
76459;SDS011;65299;46.084;18.762;2023-12-14T07:34:20;49.30;;;22.67;;
76459;SDS011;65299;46.084;18.762;2023-12-14T07:37:21;43.93;;;19.43;;
76459;SDS011;65299;46.084;18.762;2023-12-14T07:40:21;40.33;;;18.50;;
76459;SDS011;65299;46.084;18.762;2023-12-14T07:43:22;37.83;;;18.57;;
76459;SDS011;65299;46.084;18.762;2023-12-14T07:46:23;19.92;;;10.55;;
76459;SDS011;65299;46.084;18.762;2023-12-14T07:49:23;15.00;;;8.27;;
76459;SDS011;65299;46.084;18.762;2023-12-14T07:52:24;12.57;;;7.18;;
76459;SDS011;65299;46.084;18.762;2023-12-14T07:55:24;16.07;;;9.10;;
76459;SDS011;65299;46.084;18.762;2023-12-14T07:58:24;17.03;;;9.97;;
76459;SDS011;65299;46.084;18.762;2023-12-14T08:01:26;19.25;;;10.95;;
76459;SDS011;65299;46.084;18.762;2023-12-14T08:04:26;15.40;;;8.47;;
76459;SDS011;65299;46.084;18.762;2023-12-14T08:07:26;16.60;;;10.00;;
76459;SDS011;65299;46.084;18.762;2023-12-14T08:10:29;25.60;;;15.50;;
76459;SDS011;65299;46.084;18.762;2023-12-14T08:13:30;29.50;;;18.73;;
76459;SDS011;65299;46.084;18.762;2023-12-14T08:16:30;24.17;;;16.55;;
76459;SDS011;65299;46.084;18.762;2023-12-14T08:19:31;15.77;;;9.53;;
76459;SDS011;65299;46.084;18.762;2023-12-14T08:22:32;15.80;;;9.02;;
76459;SDS011;65299;46.084;18.762;2023-12-14T08:25:32;14.57;;;8.47;;
76459;SDS011;65299;46.084;18.762;2023-12-14T08:28:32;17.33;;;9.50;;
76459;SDS011;65299;46.084;18.762;2023-12-14T08:31:34;14.97;;;8.50;;
76459;SDS011;65299;46.084;18.762;2023-12-14T08:34:34;24.67;;;13.23;;
76459;SDS011;65299;46.084;18.762;2023-12-14T08:37:35;23.90;;;10.70;;
76459;SDS011;65299;46.084;18.762;2023-12-14T08:40:36;24.00;;;11.23;;
76459;SDS011;65299;46.084;18.762;2023-12-14T08:43:36;17.73;;;9.38;;
76459;SDS011;65299;46.084;18.762;2023-12-14T08:46:44;17.53;;;8.93;;
76459;SDS011;65299;46.084;18.762;2023-12-14T08:49:46;15.52;;;8.55;;
76459;SDS011;65299;46.084;18.762;2023-12-14T08:52:47;15.90;;;8.80;;
76459;SDS011;65299;46.084;18.762;2023-12-14T08:55:48;18.05;;;9.50;;
76459;SDS011;65299;46.084;18.762;2023-12-14T08:58:48;16.90;;;9.10;;
76459;SDS011;65299;46.084;18.762;2023-12-14T09:01:48;17.92;;;9.02;;
76459;SDS011;65299;46.084;18.762;2023-12-14T09:04:49;15.70;;;8.10;;
76459;SDS011;65299;46.084;18.762;2023-12-14T09:07:49;15.87;;;8.20;;
76459;SDS011;65299;46.084;18.762;2023-12-14T09:10:54;16.33;;;7.50;;
76459;SDS011;65299;46.084;18.762;2023-12-14T09:13:55;12.93;;;7.60;;
76459;SDS011;65299;46.084;18.762;2023-12-14T09:16:55;18.93;;;11.60;;
76459;SDS011;65299;46.084;18.762;2023-12-14T09:19:56;19.92;;;10.23;;
76459;SDS011;65299;46.084;18.762;2023-12-14T09:22:56;19.80;;;12.20;;
76459;SDS011;65299;46.084;18.762;2023-12-14T09:25:57;23.67;;;11.37;;
76459;SDS011;65299;46.084;18.762;2023-12-14T09:28:59;15.75;;;8.43;;
76459;SDS011;65299;46.084;18.762;2023-12-14T09:31:59;15.70;;;8.30;;
76459;SDS011;65299;46.084;18.762;2023-12-14T09:34:59;21.02;;;10.07;;
76459;SDS011;65299;46.084;18.762;2023-12-14T09:38:00;19.67;;;10.57;;
76459;SDS011;65299;46.084;18.762;2023-12-14T09:41:01;27.25;;;13.98;;
76459;SDS011;65299;46.084;18.762;2023-12-14T09:44:02;13.60;;;7.93;;
76459;SDS011;65299;46.084;18.762;2023-12-14T09:47:03;20.90;;;11.25;;
76459;SDS011;65299;46.084;18.762;2023-12-14T09:50:05;15.40;;;8.00;;
76459;SDS011;65299;46.084;18.762;2023-12-14T09:53:06;16.48;;;8.50;;
76459;SDS011;65299;46.084;18.762;2023-12-14T09:56:07;12.02;;;6.85;;
76459;SDS011;65299;46.084;18.762;2023-12-14T09:59:08;16.08;;;8.65;;
76459;SDS011;65299;46.084;18.762;2023-12-14T10:02:09;17.27;;;10.30;;
76459;SDS011;65299;46.084;18.762;2023-12-14T10:05:11;15.70;;;9.50;;
76459;SDS011;65299;46.084;18.762;2023-12-14T10:08:12;14.80;;;5.40;;
76459;SDS011;65299;46.084;18.762;2023-12-14T10:11:16;11.07;;;6.20;;
76459;SDS011;65299;46.084;18.762;2023-12-14T10:14:20;14.43;;;8.25;;
76459;SDS011;65299;46.084;18.762;2023-12-14T10:17:22;14.77;;;7.80;;
76459;SDS011;65299;46.084;18.762;2023-12-14T10:20:29;16.05;;;8.57;;
76459;SDS011;65299;46.084;18.762;2023-12-14T10:23:30;15.40;;;8.70;;
76459;SDS011;65299;46.084;18.762;2023-12-14T10:26:30;19.25;;;8.82;;
76459;SDS011;65299;46.084;18.762;2023-12-14T10:29:32;11.40;;;6.73;;
76459;SDS011;65299;46.084;18.762;2023-12-14T10:32:34;14.60;;;7.80;;
76459;SDS011;65299;46.084;18.762;2023-12-14T10:35:35;13.80;;;7.87;;
76459;SDS011;65299;46.084;18.762;2023-12-14T10:38:36;15.23;;;7.95;;
76459;SDS011;65299;46.084;18.762;2023-12-14T10:41:38;19.02;;;11.43;;
76459;SDS011;65299;46.084;18.762;2023-12-14T10:44:39;9.38;;;5.65;;
76459;SDS011;65299;46.084;18.762;2023-12-14T10:47:42;10.73;;;5.57;;
76459;SDS011;65299;46.084;18.762;2023-12-14T10:50:44;17.92;;;9.57;;
76459;SDS011;65299;46.084;18.762;2023-12-14T10:53:44;13.60;;;8.00;;
76459;SDS011;65299;46.084;18.762;2023-12-14T10:56:49;16.73;;;9.33;;
76459;SDS011;65299;46.084;18.762;2023-12-14T10:59:49;17.30;;;9.65;;
76459;SDS011;65299;46.084;18.762;2023-12-14T11:02:55;15.15;;;9.23;;
76459;SDS011;65299;46.084;18.762;2023-12-14T11:05:57;16.73;;;8.03;;
76459;SDS011;65299;46.084;18.762;2023-12-14T11:08:59;15.35;;;9.57;;
76459;SDS011;65299;46.084;18.762;2023-12-14T11:12:06;14.90;;;8.17;;
76459;SDS011;65299;46.084;18.762;2023-12-14T11:15:09;15.52;;;7.85;;
76459;SDS011;65299;46.084;18.762;2023-12-14T11:21:11;14.23;;;8.10;;
76459;SDS011;65299;46.084;18.762;2023-12-14T11:24:20;14.23;;;8.57;;
76459;SDS011;65299;46.084;18.762;2023-12-14T11:27:25;13.88;;;8.05;;
76459;SDS011;65299;46.084;18.762;2023-12-14T11:30:27;9.55;;;6.15;;
76459;SDS011;65299;46.084;18.762;2023-12-14T11:33:28;13.17;;;8.03;;
76459;SDS011;65299;46.084;18.762;2023-12-14T11:36:29;13.70;;;8.40;;
76459;SDS011;65299;46.084;18.762;2023-12-14T11:39:30;10.20;;;5.20;;
76459;SDS011;65299;46.084;18.762;2023-12-14T11:42:31;11.95;;;7.18;;
76459;SDS011;65299;46.084;18.762;2023-12-14T11:45:32;11.50;;;6.60;;
76459;SDS011;65299;46.084;18.762;2023-12-14T11:48:33;12.00;;;6.20;;
76459;SDS011;65299;46.084;18.762;2023-12-14T11:51:34;12.43;;;6.30;;
76459;SDS011;65299;46.084;18.762;2023-12-14T11:54:34;14.20;;;7.73;;
76459;SDS011;65299;46.084;18.762;2023-12-14T11:57:37;13.48;;;8.35;;
76459;SDS011;65299;46.084;18.762;2023-12-14T12:00:37;15.57;;;8.77;;
76459;SDS011;65299;46.084;18.762;2023-12-14T12:03:39;12.07;;;6.43;;
76459;SDS011;65299;46.084;18.762;2023-12-14T12:06:40;11.70;;;6.60;;
76459;SDS011;65299;46.084;18.762;2023-12-14T12:09:41;10.70;;;6.77;;
76459;SDS011;65299;46.084;18.762;2023-12-14T12:12:43;15.98;;;9.05;;
76459;SDS011;65299;46.084;18.762;2023-12-14T12:15:44;11.40;;;6.33;;
76459;SDS011;65299;46.084;18.762;2023-12-14T12:18:44;13.38;;;7.50;;
76459;SDS011;65299;46.084;18.762;2023-12-14T12:21:45;9.57;;;5.23;;
76459;SDS011;65299;46.084;18.762;2023-12-14T12:24:45;11.10;;;6.20;;
76459;SDS011;65299;46.084;18.762;2023-12-14T12:27:46;11.43;;;6.17;;
76459;SDS011;65299;46.084;18.762;2023-12-14T12:30:47;10.75;;;6.70;;
76459;SDS011;65299;46.084;18.762;2023-12-14T12:33:47;9.50;;;5.43;;
76459;SDS011;65299;46.084;18.762;2023-12-14T12:36:48;13.45;;;6.82;;
76459;SDS011;65299;46.084;18.762;2023-12-14T12:39:48;13.23;;;6.87;;
76459;SDS011;65299;46.084;18.762;2023-12-14T12:42:49;12.70;;;7.77;;
76459;SDS011;65299;46.084;18.762;2023-12-14T12:45:50;11.18;;;6.70;;
76459;SDS011;65299;46.084;18.762;2023-12-14T12:48:50;14.43;;;6.23;;
76459;SDS011;65299;46.084;18.762;2023-12-14T12:51:51;8.55;;;4.95;;
76459;SDS011;65299;46.084;18.762;2023-12-14T12:54:52;5.00;;;3.63;;
76459;SDS011;65299;46.084;18.762;2023-12-14T12:57:52;10.30;;;6.05;;
76459;SDS011;65299;46.084;18.762;2023-12-14T13:00:53;10.83;;;5.80;;
76459;SDS011;65299;46.084;18.762;2023-12-14T13:03:53;10.57;;;5.73;;
76459;SDS011;65299;46.084;18.762;2023-12-14T13:06:56;11.98;;;5.03;;
76459;SDS011;65299;46.084;18.762;2023-12-14T13:09:57;9.25;;;5.25;;
76459;SDS011;65299;46.084;18.762;2023-12-14T13:12:57;10.40;;;5.37;;
76459;SDS011;65299;46.084;18.762;2023-12-14T13:15:58;10.63;;;5.43;;
76459;SDS011;65299;46.084;18.762;2023-12-14T13:18:58;9.65;;;5.55;;
76459;SDS011;65299;46.084;18.762;2023-12-14T13:21:59;8.97;;;5.50;;
76459;SDS011;65299;46.084;18.762;2023-12-14T13:25:02;11.48;;;5.88;;
76459;SDS011;65299;46.084;18.762;2023-12-14T13:28:03;12.30;;;7.17;;
76459;SDS011;65299;46.084;18.762;2023-12-14T13:31:04;9.63;;;5.70;;
76459;SDS011;65299;46.084;18.762;2023-12-14T13:34:06;11.38;;;6.53;;
76459;SDS011;65299;46.084;18.762;2023-12-14T13:37:06;12.30;;;6.63;;
76459;SDS011;65299;46.084;18.762;2023-12-14T13:40:08;17.42;;;8.75;;
76459;SDS011;65299;46.084;18.762;2023-12-14T13:43:10;15.57;;;7.22;;
76459;SDS011;65299;46.084;18.762;2023-12-14T13:46:10;12.70;;;7.10;;
76459;SDS011;65299;46.084;18.762;2023-12-14T13:49:11;13.57;;;7.73;;
76459;SDS011;65299;46.084;18.762;2023-12-14T13:52:12;16.70;;;7.80;;
76459;SDS011;65299;46.084;18.762;2023-12-14T13:55:12;14.43;;;7.23;;
76459;SDS011;65299;46.084;18.762;2023-12-14T13:58:13;12.65;;;7.22;;
76459;SDS011;65299;46.084;18.762;2023-12-14T14:01:13;12.23;;;6.53;;
76459;SDS011;65299;46.084;18.762;2023-12-14T14:04:13;12.73;;;7.17;;
76459;SDS011;65299;46.084;18.762;2023-12-14T14:07:14;10.73;;;5.43;;
76459;SDS011;65299;46.084;18.762;2023-12-14T14:10:14;11.20;;;5.97;;
76459;SDS011;65299;46.084;18.762;2023-12-14T14:13:15;11.20;;;6.60;;
76459;SDS011;65299;46.084;18.762;2023-12-14T14:16:15;13.37;;;6.63;;
76459;SDS011;65299;46.084;18.762;2023-12-14T14:19:16;11.75;;;6.40;;
76459;SDS011;65299;46.084;18.762;2023-12-14T14:22:16;11.67;;;6.30;;
76459;SDS011;65299;46.084;18.762;2023-12-14T14:25:17;11.50;;;5.23;;
76459;SDS011;65299;46.084;18.762;2023-12-14T14:28:18;10.93;;;5.55;;
76459;SDS011;65299;46.084;18.762;2023-12-14T14:31:18;10.33;;;5.07;;
76459;SDS011;65299;46.084;18.762;2023-12-14T14:34:18;9.37;;;5.00;;
76459;SDS011;65299;46.084;18.762;2023-12-14T14:37:20;7.82;;;4.10;;
76459;SDS011;65299;46.084;18.762;2023-12-14T14:40:20;11.75;;;6.28;;
76459;SDS011;65299;46.084;18.762;2023-12-14T14:43:22;11.37;;;5.90;;
76459;SDS011;65299;46.084;18.762;2023-12-14T14:46:23;11.32;;;6.22;;
76459;SDS011;65299;46.084;18.762;2023-12-14T14:49:23;11.70;;;6.47;;
76459;SDS011;65299;46.084;18.762;2023-12-14T14:52:23;9.03;;;5.30;;
76459;SDS011;65299;46.084;18.762;2023-12-14T14:55:24;12.88;;;7.18;;
76459;SDS011;65299;46.084;18.762;2023-12-14T14:58:25;10.63;;;6.28;;
76459;SDS011;65299;46.084;18.762;2023-12-14T15:01:26;7.47;;;4.57;;
76459;SDS011;65299;46.084;18.762;2023-12-14T15:04:26;7.33;;;4.17;;
76459;SDS011;65299;46.084;18.762;2023-12-14T15:07:27;11.55;;;5.60;;
76459;SDS011;65299;46.084;18.762;2023-12-14T15:10:29;11.20;;;6.20;;
76459;SDS011;65299;46.084;18.762;2023-12-14T15:13:29;11.45;;;5.32;;
76459;SDS011;65299;46.084;18.762;2023-12-14T15:16:29;10.63;;;5.57;;
76459;SDS011;65299;46.084;18.762;2023-12-14T15:19:30;8.40;;;4.50;;
76459;SDS011;65299;46.084;18.762;2023-12-14T15:22:30;9.70;;;5.13;;
76459;SDS011;65299;46.084;18.762;2023-12-14T15:25:31;7.03;;;4.40;;
76459;SDS011;65299;46.084;18.762;2023-12-14T15:28:31;11.27;;;5.73;;
76459;SDS011;65299;46.084;18.762;2023-12-14T15:31:32;15.37;;;7.47;;
76459;SDS011;65299;46.084;18.762;2023-12-14T15:34:32;11.75;;;6.85;;
76459;SDS011;65299;46.084;18.762;2023-12-14T15:37:33;17.27;;;7.97;;
76459;SDS011;65299;46.084;18.762;2023-12-14T15:40:33;10.47;;;5.00;;
76459;SDS011;65299;46.084;18.762;2023-12-14T15:43:35;10.55;;;6.07;;
76459;SDS011;65299;46.084;18.762;2023-12-14T15:46:36;5.60;;;3.63;;
76459;SDS011;65299;46.084;18.762;2023-12-14T15:49:36;8.37;;;4.80;;
76459;SDS011;65299;46.084;18.762;2023-12-14T15:52:37;10.57;;;5.33;;
76459;SDS011;65299;46.084;18.762;2023-12-14T15:55:37;11.77;;;5.87;;
76459;SDS011;65299;46.084;18.762;2023-12-14T15:58:38;10.80;;;5.13;;
76459;SDS011;65299;46.084;18.762;2023-12-14T16:01:38;8.30;;;5.57;;
76459;SDS011;65299;46.084;18.762;2023-12-14T16:04:40;8.93;;;4.63;;
76459;SDS011;65299;46.084;18.762;2023-12-14T16:07:41;7.87;;;4.67;;
76459;SDS011;65299;46.084;18.762;2023-12-14T16:10:41;5.70;;;3.87;;
76459;SDS011;65299;46.084;18.762;2023-12-14T16:13:44;10.75;;;4.55;;
76459;SDS011;65299;46.084;18.762;2023-12-14T16:16:45;13.33;;;6.47;;
76459;SDS011;65299;46.084;18.762;2023-12-14T16:19:46;15.70;;;8.13;;
76459;SDS011;65299;46.084;18.762;2023-12-14T16:22:47;11.80;;;6.60;;
76459;SDS011;65299;46.084;18.762;2023-12-14T16:25:47;15.33;;;7.30;;
76459;SDS011;65299;46.084;18.762;2023-12-14T16:28:48;14.25;;;7.15;;
76459;SDS011;65299;46.084;18.762;2023-12-14T16:31:48;13.43;;;7.07;;
76459;SDS011;65299;46.084;18.762;2023-12-14T16:34:49;11.60;;;5.78;;
76459;SDS011;65299;46.084;18.762;2023-12-14T16:37:50;9.93;;;5.87;;
76459;SDS011;65299;46.084;18.762;2023-12-14T16:40:50;10.57;;;5.97;;
76459;SDS011;65299;46.084;18.762;2023-12-14T16:43:51;10.20;;;5.25;;
76459;SDS011;65299;46.084;18.762;2023-12-14T16:46:52;12.38;;;5.75;;
76459;SDS011;65299;46.084;18.762;2023-12-14T16:49:56;10.50;;;5.80;;
76459;SDS011;65299;46.084;18.762;2023-12-14T16:53:00;12.40;;;6.15;;
76459;SDS011;65299;46.084;18.762;2023-12-14T16:56:02;11.52;;;6.15;;
76459;SDS011;65299;46.084;18.762;2023-12-14T16:59:05;13.50;;;7.55;;
76459;SDS011;65299;46.084;18.762;2023-12-14T17:02:05;13.33;;;7.53;;
76459;SDS011;65299;46.084;18.762;2023-12-14T17:05:06;18.10;;;8.93;;
76459;SDS011;65299;46.084;18.762;2023-12-14T17:08:06;16.05;;;8.48;;
76459;SDS011;65299;46.084;18.762;2023-12-14T17:11:07;13.13;;;7.03;;
76459;SDS011;65299;46.084;18.762;2023-12-14T17:14:08;16.00;;;8.30;;
76459;SDS011;65299;46.084;18.762;2023-12-14T17:17:09;18.50;;;10.25;;
76459;SDS011;65299;46.084;18.762;2023-12-14T17:20:10;14.27;;;8.27;;
76459;SDS011;65299;46.084;18.762;2023-12-14T17:23:10;14.57;;;8.20;;
76459;SDS011;65299;46.084;18.762;2023-12-14T17:26:11;14.05;;;8.68;;
76459;SDS011;65299;46.084;18.762;2023-12-14T17:29:13;15.17;;;6.93;;
76459;SDS011;65299;46.084;18.762;2023-12-14T17:32:14;10.38;;;5.00;;
76459;SDS011;65299;46.084;18.762;2023-12-14T17:35:15;9.83;;;4.97;;
76459;SDS011;65299;46.084;18.762;2023-12-14T17:38:15;10.43;;;5.60;;
76459;SDS011;65299;46.084;18.762;2023-12-14T17:41:16;12.37;;;6.87;;
76459;SDS011;65299;46.084;18.762;2023-12-14T17:44:16;10.43;;;5.63;;